Time;durP1;ratioP1;P1;durP2;ratioP2;P2;SDS_P1;SDS_P2;PMS_P1;PMS_P2;Temp;Humidity;BMP_temperature;BMP_pressure;BME280_temperature;BME280_humidity;BME280_pressure;Samples;Min_cycle;Max_cycle;Signal;HPM_P1;HPM_P2
2023/04/15 00:00:57;;;;;;;6.88;5.90;;;;;;;7.22;66.25;100916.19;6100248;23;20106;-78
2023/04/15 00:03:24;;;;;;;7.50;5.88;;;;;;;7.21;66.17;100920.72;6099205;23;20023;-78
2023/04/15 00:05:51;;;;;;;9.25;6.05;;;;;;;7.21;66.10;100918.09;6100482;23;20215;-76
2023/04/15 00:08:17;;;;;;;7.72;6.07;;;;;;;7.22;66.22;100918.84;6099932;23;20087;-76
2023/04/15 00:10:45;;;;;;;12.60;6.70;;;;;;;7.22;66.81;100916.19;6098935;23;20026;-77
2023/04/15 00:13:12;;;;;;;10.95;6.05;;;;;;;7.20;66.49;100919.25;6099687;23;20015;-76
2023/04/15 00:15:38;;;;;;;7.60;6.15;;;;;;;7.19;67.23;100922.34;6099007;23;20015;-76
2023/04/15 00:18:06;;;;;;;8.23;6.28;;;;;;;7.17;66.63;100924.63;6099097;23;20020;-78
2023/04/15 00:20:34;;;;;;;8.75;5.82;;;;;;;7.14;67.04;100925.47;6099946;23;20019;-76
2023/04/15 00:23:01;;;;;;;9.48;6.55;;;;;;;7.12;66.99;100911.88;6098382;23;20553;-78
2023/04/15 00:25:28;;;;;;;9.95;6.75;;;;;;;7.11;66.90;100916.44;6099903;23;20018;-76
2023/04/15 00:27:54;;;;;;;8.38;6.30;;;;;;;7.09;67.22;100916.09;6098812;23;20070;-76
2023/04/15 00:30:22;;;;;;;7.28;5.93;;;;;;;7.07;67.26;100909.72;6098200;23;20457;-78
2023/04/15 00:32:49;;;;;;;13.30;6.65;;;;;;;7.05;67.79;100915.44;6099876;23;20089;-76
2023/04/15 00:35:20;;;;;;;9.48;6.70;;;;;;;7.04;68.04;100916.59;6098367;23;20026;-76
2023/04/15 00:37:47;;;;;;;7.13;6.35;;;;;;;6.99;68.50;100917.81;6100341;23;20069;-76
2023/04/15 00:40:17;;;;;;;9.88;6.28;;;;;;;6.94;68.64;100920.19;6099628;23;20443;-76
2023/04/15 00:42:44;;;;;;;7.60;6.30;;;;;;;6.90;69.41;100912.31;6100399;23;20015;-77
2023/04/15 00:45:11;;;;;;;9.60;6.70;;;;;;;6.87;69.26;100920.31;6099387;23;20018;-76
2023/04/15 00:47:40;;;;;;;9.57;6.47;;;;;;;6.82;69.12;100921.53;6099603;23;20015;-77
2023/04/15 00:50:07;;;;;;;7.00;6.20;;;;;;;6.77;69.99;100916.00;6097928;23;20094;-78
2023/04/15 00:52:34;;;;;;;11.00;6.38;;;;;;;6.72;70.21;100925.16;6100111;23;20046;-77
2023/04/15 00:55:01;;;;;;;9.35;6.72;;;;;;;6.68;70.90;100927.13;6099962;23;20041;-77
2023/04/15 00:57:29;;;;;;;11.75;6.63;;;;;;;6.61;71.07;100927.28;6097550;23;20019;-77
2023/04/15 00:59:56;;;;;;;7.70;6.15;;;;;;;6.57;71.05;100922.03;6099969;23;20023;-77
2023/04/15 01:02:22;;;;;;;10.27;6.85;;;;;;;6.52;71.65;100921.75;6099245;23;20026;-77
2023/04/15 01:04:50;;;;;;;9.05;6.72;;;;;;;6.47;72.05;100917.69;6098450;23;20410;-77
2023/04/15 01:07:16;;;;;;;10.05;6.53;;;;;;;6.41;72.13;100913.28;6099351;23;20019;-77
2023/04/15 01:09:44;;;;;;;8.63;6.03;;;;;;;6.35;72.25;100921.72;6100274;23;20050;-77
2023/04/15 01:12:12;;;;;;;13.68;6.82;;;;;;;6.28;72.97;100927.13;6099356;23;20011;-77
2023/04/15 01:14:39;;;;;;;10.07;6.90;;;;;;;6.26;73.20;100924.13;6100064;23;20015;-77
2023/04/15 01:17:06;;;;;;;9.32;7.30;;;;;;;6.22;74.46;100923.44;6099125;23;20476;-78
2023/04/15 01:19:33;;;;;;;12.25;7.05;;;;;;;6.19;74.36;100926.88;6099756;23;20438;-78
2023/04/15 01:22:02;;;;;;;9.93;6.38;;;;;;;6.17;74.07;100923.16;6097915;23;20026;-78
2023/04/15 01:24:30;;;;;;;8.93;6.65;;;;;;;6.16;73.50;100922.41;6099630;23;20316;-77
2023/04/15 01:26:57;;;;;;;10.95;6.65;;;;;;;6.16;73.42;100925.06;6097819;23;20030;-78
2023/04/15 01:29:24;;;;;;;9.82;6.68;;;;;;;6.15;74.01;100914.88;6097740;23;20054;-77
2023/04/15 01:31:52;;;;;;;11.07;6.82;;;;;;;6.14;73.58;100916.78;6099305;23;20050;-77
2023/04/15 01:34:19;;;;;;;7.28;6.28;;;;;;;6.15;73.48;100923.56;6074614;23;20030;-78
2023/04/15 01:36:46;;;;;;;8.25;6.43;;;;;;;6.15;73.46;100922.81;6101404;23;20022;-77
2023/04/15 01:39:14;;;;;;;7.85;6.60;;;;;;;6.15;73.80;100920.16;6100270;23;20122;-77
2023/04/15 01:41:41;;;;;;;11.32;6.57;;;;;;;6.16;73.52;100924.31;6099653;23;20457;-77
2023/04/15 01:44:07;;;;;;;11.00;6.68;;;;;;;6.12;73.80;100916.44;6098271;23;20421;-77
2023/04/15 01:46:35;;;;;;;13.02;6.35;;;;;;;6.07;74.14;100916.91;6100801;23;20019;-78
2023/04/15 01:49:02;;;;;;;7.72;6.22;;;;;;;6.03;74.52;100922.25;6100898;23;20025;-77
2023/04/15 01:51:31;;;;;;;10.50;6.70;;;;;;;6.02;74.42;100922.63;6098991;23;20086;-77
2023/04/15 01:53:57;;;;;;;7.82;6.40;;;;;;;6.01;74.15;100927.19;6100646;23;20022;-77
2023/04/15 01:56:24;;;;;;;10.80;6.28;;;;;;;5.99;74.53;100920.84;6098589;23;20453;-78
2023/04/15 01:58:51;;;;;;;9.43;6.55;;;;;;;5.95;74.73;100920.13;6098827;23;20038;-77
2023/04/15 02:01:18;;;;;;;8.77;6.03;;;;;;;5.93;75.15;100925.09;6098343;23;20022;-77
2023/04/15 02:03:46;;;;;;;9.90;6.32;;;;;;;5.91;75.08;100924.72;6101051;23;20061;-78
2023/04/15 02:06:14;;;;;;;8.13;6.38;;;;;;;5.86;75.45;100920.63;6100100;23;20030;-77
2023/04/15 02:08:40;;;;;;;9.48;6.38;;;;;;;5.84;75.72;100920.28;6099156;23;20023;-78
2023/04/15 02:11:07;;;;;;;11.48;6.57;;;;;;;5.79;75.78;100920.72;6098704;23;20400;-77
2023/04/15 02:13:33;;;;;;;8.55;5.75;;;;;;;5.76;75.87;100923.44;6074325;23;20023;-78
2023/04/15 02:16:00;;;;;;;10.35;6.35;;;;;;;5.72;76.58;100931.41;6098980;23;20094;-77
2023/04/15 02:18:27;;;;;;;6.50;5.90;;;;;;;5.68;76.29;100928.06;6100631;23;20025;-78
2023/04/15 02:20:56;;;;;;;8.05;6.55;;;;;;;5.63;77.08;100934.53;6099219;23;20466;-77
2023/04/15 02:23:22;;;;;;;7.75;6.57;;;;;;;5.60;77.25;100934.59;6100579;23;20021;-77
2023/04/15 02:25:49;;;;;;;8.68;6.50;;;;;;;5.55;76.80;100941.09;6098969;23;20045;-77
2023/04/15 02:28:20;;;;;;;8.05;6.15;;;;;;;5.50;77.81;100944.19;6097818;23;20099;-77
2023/04/15 02:30:49;;;;;;;10.68;5.90;;;;;;;5.48;78.12;100940.44;6100927;23;20358;-77
2023/04/15 02:33:16;;;;;;;8.82;6.70;;;;;;;5.46;78.11;100940.84;6099900;23;20439;-77
2023/04/15 02:35:44;;;;;;;8.32;6.35;;;;;;;5.43;78.66;100946.94;6098886;23;20072;-77
2023/04/15 02:38:11;;;;;;;7.07;6.25;;;;;;;5.38;78.70;100950.00;6099996;23;20019;-77
2023/04/15 02:40:37;;;;;;;8.27;6.47;;;;;;;5.36;79.30;100955.69;6100582;23;20025;-77
2023/04/15 02:43:06;;;;;;;10.23;6.70;;;;;;;5.35;79.09;100951.56;6097889;23;20099;-77
2023/04/15 02:45:33;;;;;;;9.68;6.47;;;;;;;5.35;79.15;100966.66;6098010;23;20414;-77
2023/04/15 02:48:05;;;;;;;9.43;6.30;;;;;;;5.32;78.81;100959.50;6098305;23;20023;-77
2023/04/15 02:50:32;;;;;;;6.88;6.18;;;;;;;5.30;79.21;100961.81;6098366;23;20434;-77
2023/04/15 02:53:00;;;;;;;6.93;6.05;;;;;;;5.23;79.85;100954.72;6098496;23;20472;-77
2023/04/15 02:55:27;;;;;;;7.22;6.07;;;;;;;5.22;79.93;100963.78;6098257;23;20431;-77
2023/04/15 02:57:54;;;;;;;11.82;6.72;;;;;;;5.20;80.42;100966.06;6098072;23;20026;-77
2023/04/15 03:00:21;;;;;;;7.03;5.97;;;;;;;5.16;80.61;100970.66;6100227;23;20026;-77
2023/04/15 03:02:50;;;;;;;6.88;6.15;;;;;;;5.12;80.43;100969.97;6098862;23;20488;-76
2023/04/15 03:05:18;;;;;;;11.98;6.35;;;;;;;5.09;80.96;100973.41;6099787;23;20022;-77
2023/04/15 03:07:50;;;;;;;7.10;6.35;;;;;;;5.05;81.15;100971.94;6100605;23;20023;-77
2023/04/15 03:10:17;;;;;;;9.85;7.00;;;;;;;5.02;81.53;100970.84;6097973;23;20023;-77
2023/04/15 03:12:45;;;;;;;7.13;6.43;;;;;;;5.00;81.60;100973.88;6098104;23;20051;-77
2023/04/15 03:15:16;;;;;;;10.27;6.70;;;;;;;4.99;81.52;100974.25;6099879;23;20568;-77
2023/04/15 03:17:48;;;;;;;8.55;6.68;;;;;;;4.98;82.00;100981.44;6098484;23;20128;-77
2023/04/15 03:20:15;;;;;;;7.60;6.18;;;;;;;4.93;82.23;100975.84;6099684;23;20045;-77
2023/04/15 03:22:42;;;;;;;10.80;6.53;;;;;;;4.91;82.40;100978.88;6099032;23;20374;-78
2023/04/15 03:25:09;;;;;;;7.63;6.13;;;;;;;4.88;82.64;100984.94;6098060;23;20029;-77
2023/04/15 03:27:37;;;;;;;7.03;6.32;;;;;;;4.85;83.24;100991.00;6098085;23;20027;-77
2023/04/15 03:30:05;;;;;;;9.43;5.65;;;;;;;4.83;83.12;100988.00;6098195;23;20026;-77
2023/04/15 03:32:34;;;;;;;6.55;5.95;;;;;;;4.81;83.42;100987.63;6098963;23;20023;-77
2023/04/15 03:35:01;;;;;;;6.40;5.80;;;;;;;4.78;83.34;100987.69;6098230;23;20369;-77
2023/04/15 03:37:28;;;;;;;6.07;5.50;;;;;;;4.76;83.89;100987.34;6100242;23;20027;-77
2023/04/15 03:39:54;;;;;;;7.25;6.32;;;;;;;4.74;84.29;100987.00;6099809;23;20434;-76
2023/04/15 03:42:21;;;;;;;7.25;5.85;;;;;;;4.68;83.50;100992.69;6099988;23;20015;-76
2023/04/15 03:44:47;;;;;;;9.10;5.75;;;;;;;4.66;83.85;100988.94;6100246;23;20090;-76
2023/04/15 03:47:14;;;;;;;6.60;5.88;;;;;;;4.63;84.03;101002.91;6099626;23;20027;-76
2023/04/15 03:49:40;;;;;;;10.48;6.07;;;;;;;4.61;84.17;100999.91;6100613;23;20019;-76
2023/04/15 03:52:07;;;;;;;7.82;6.10;;;;;;;4.57;83.86;101004.47;6099743;23;20015;-76
2023/04/15 03:54:33;;;;;;;7.75;5.60;;;;;;;4.50;84.31;101004.53;6099372;23;20026;-76
2023/04/15 03:57:00;;;;;;;7.80;6.18;;;;;;;4.48;84.21;101010.19;6105691;23;20089;-77
2023/04/15 03:59:27;;;;;;;9.13;6.80;;;;;;;4.47;84.73;101019.25;6079153;23;20022;-77
2023/04/15 04:01:53;;;;;;;9.88;6.85;;;;;;;4.42;85.10;101006.47;6129786;23;20113;-77
2023/04/15 04:04:20;;;;;;;8.90;6.57;;;;;;;4.36;84.79;101015.97;6128740;23;20025;-77
2023/04/15 04:06:47;;;;;;;6.60;6.00;;;;;;;4.34;85.40;101019.00;6129729;23;20085;-77
2023/04/15 04:09:13;;;;;;;7.82;6.65;;;;;;;4.31;85.29;101025.03;6128273;23;20014;-76
2023/04/15 04:11:39;;;;;;;6.63;5.93;;;;;;;4.28;85.04;101028.44;6103487;23;20014;-76
2023/04/15 04:14:06;;;;;;;7.15;6.35;;;;;;;4.25;85.36;101031.13;6103263;23;20030;-77
2023/04/15 04:16:33;;;;;;;9.82;5.68;;;;;;;4.24;86.00;101033.00;6129308;23;20022;-77
2023/04/15 04:18:59;;;;;;;7.07;6.00;;;;;;;4.23;85.60;101030.75;6129338;23;20085;-76
2023/04/15 04:21:26;;;;;;;8.05;6.13;;;;;;;4.17;86.13;101038.31;6129342;23;20034;-77
2023/04/15 04:23:53;;;;;;;10.43;6.57;;;;;;;4.15;86.46;101040.59;6102863;23;20022;-76
2023/04/15 04:26:21;;;;;;;11.82;6.60;;;;;;;4.11;86.55;101041.75;6128681;23;20058;-77
2023/04/15 04:28:47;;;;;;;10.10;6.35;;;;;;;4.10;86.23;101048.16;6129789;23;20042;-77
2023/04/15 04:31:14;;;;;;;8.05;6.82;;;;;;;4.07;86.61;101049.69;6128878;23;20026;-77
2023/04/15 04:33:40;;;;;;;9.38;6.03;;;;;;;4.05;86.55;101053.84;6129508;23;20015;-76
2023/04/15 04:36:07;;;;;;;10.55;6.72;;;;;;;4.02;86.46;101056.09;6129157;23;20030;-76
2023/04/15 04:38:33;;;;;;;7.75;6.10;;;;;;;4.00;86.89;101058.38;6128501;23;20021;-76
2023/04/15 04:41:00;;;;;;;7.78;5.78;;;;;;;3.96;86.58;101062.19;6102959;23;20138;-77
2023/04/15 04:43:26;;;;;;;7.32;6.47;;;;;;;3.92;86.66;101067.47;6128987;23;20021;-76
2023/04/15 04:45:53;;;;;;;7.85;6.32;;;;;;;3.88;86.39;101077.28;6129194;23;20445;-76
2023/04/15 04:48:20;;;;;;;6.97;6.28;;;;;;;3.83;86.47;101072.41;6128432;23;20015;-76
2023/04/15 04:50:46;;;;;;;6.97;6.10;;;;;;;3.81;87.36;101079.94;6129200;23;20078;-76
2023/04/15 04:53:13;;;;;;;8.13;5.72;;;;;;;3.81;87.42;101084.47;6127797;23;20019;-76
2023/04/15 04:55:40;;;;;;;8.20;6.63;;;;;;;3.82;87.26;101091.97;6128772;23;20022;-76
2023/04/15 04:58:06;;;;;;;6.82;6.00;;;;;;;3.82;87.75;101094.63;6128582;23;20014;-77
2023/04/15 05:00:33;;;;;;;6.32;5.72;;;;;;;3.84;88.04;101096.88;6129311;23;20025;-77
2023/04/15 05:03:00;;;;;;;11.75;6.50;;;;;;;3.85;88.23;101091.22;6128642;23;20022;-77
2023/04/15 05:05:27;;;;;;;7.50;6.30;;;;;;;3.84;88.04;101102.13;6128391;23;20883;-76
2023/04/15 05:07:53;;;;;;;17.30;6.80;;;;;;;3.87;88.41;101109.25;6129007;23;20026;-76
2023/04/15 05:10:20;;;;;;;7.28;6.40;;;;;;;3.91;88.64;101104.72;6128575;23;20042;-76
2023/04/15 05:12:47;;;;;;;11.15;6.45;;;;;;;3.95;88.48;101113.38;6129117;23;20053;-76
2023/04/15 05:15:13;;;;;;;7.47;6.75;;;;;;;3.97;88.40;101117.13;6128502;23;20022;-78
2023/04/15 05:17:39;;;;;;;10.40;6.78;;;;;;;4.00;88.69;101121.59;6129233;23;20456;-78
2023/04/15 05:20:07;;;;;;;8.50;7.10;;;;;;;4.05;88.83;101119.69;6128882;23;20018;-77
2023/04/15 05:22:33;;;;;;;12.07;6.93;;;;;;;4.10;89.11;101125.31;6128324;23;20025;-76
2023/04/15 05:25:00;;;;;;;7.20;6.47;;;;;;;4.14;89.22;101131.31;6128822;23;20018;-77
2023/04/15 05:27:26;;;;;;;9.73;7.13;;;;;;;4.21;89.40;101131.28;6128838;23;20050;-76
2023/04/15 05:29:53;;;;;;;8.15;6.95;;;;;;;4.27;89.63;101134.25;6129241;23;20019;-77
2023/04/15 05:32:19;;;;;;;13.13;6.88;;;;;;;4.33;90.04;101140.63;6102506;23;20015;-76
2023/04/15 05:34:46;;;;;;;9.73;7.10;;;;;;;4.41;90.30;101142.06;6129268;23;20025;-77
2023/04/15 05:37:12;;;;;;;11.07;6.93;;;;;;;4.49;90.18;101146.16;6127972;23;20038;-77
2023/04/15 05:39:39;;;;;;;9.90;7.72;;;;;;;4.62;90.50;101154.34;6129067;23;20014;-76
2023/04/15 05:42:05;;;;;;;9.18;7.25;;;;;;;5.21;90.85;101154.22;6128523;23;20015;-78
2023/04/15 05:44:32;;;;;;;7.88;6.80;;;;;;;6.26;87.95;101162.06;6128800;23;20461;-78
2023/04/15 05:46:59;;;;;;;9.55;7.50;;;;;;;6.91;84.20;101159.94;6128630;23;20026;-78
2023/04/15 05:49:26;;;;;;;8.77;7.47;;;;;;;6.85;82.58;101163.44;6129208;23;20038;-78
2023/04/15 05:51:52;;;;;;;9.32;7.47;;;;;;;6.79;82.32;101173.78;6128817;23;20014;-78
2023/04/15 05:54:20;;;;;;;8.45;7.55;;;;;;;6.65;82.08;101179.28;6128618;23;20019;-78
2023/04/15 05:56:47;;;;;;;9.40;7.25;;;;;;;6.39;82.70;101182.69;6102666;23;20025;-78
2023/04/15 05:59:14;;;;;;;7.47;6.78;;;;;;;6.19;83.57;101182.56;6128408;23;20015;-78
2023/04/15 06:01:40;;;;;;;8.63;7.03;;;;;;;6.06;84.08;101186.88;6129006;23;20018;-78
2023/04/15 06:04:08;;;;;;;9.50;7.50;;;;;;;6.05;84.48;101183.50;6128902;23;20038;-78
2023/04/15 06:06:35;;;;;;;12.70;7.30;;;;;;;6.00;84.45;101189.22;6102209;23;20025;-78
2023/04/15 06:09:01;;;;;;;12.50;7.53;;;;;;;5.97;85.00;101190.78;6128728;23;20019;-79
2023/04/15 06:11:28;;;;;;;11.45;7.38;;;;;;;6.09;84.97;101192.13;6128569;23;20019;-78
2023/04/15 06:13:55;;;;;;;11.18;6.78;;;;;;;6.27;84.56;101199.84;6128949;23;20018;-78
2023/04/15 06:16:22;;;;;;;12.25;7.97;;;;;;;6.41;84.14;101207.56;6129458;23;20019;-78
2023/04/15 06:18:48;;;;;;;10.52;8.05;;;;;;;6.50;83.88;101209.72;6130200;23;20018;-77
2023/04/15 06:21:15;;;;;;;15.35;7.50;;;;;;;6.74;83.66;101219.22;6128898;23;20485;-78
2023/04/15 06:23:41;;;;;;;10.68;7.60;;;;;;;7.06;82.99;101213.41;6104375;23;20057;-78
2023/04/15 06:26:08;;;;;;;11.48;7.85;;;;;;;7.35;82.03;101224.25;6129706;23;20090;-77
2023/04/15 06:28:35;;;;;;;11.32;8.10;;;;;;;7.42;81.24;101226.78;6130173;23;20025;-78
2023/04/15 06:31:01;;;;;;;10.13;8.15;;;;;;;7.58;81.45;101229.53;6129812;23;20073;-78
2023/04/15 06:33:28;;;;;;;11.80;8.80;;;;;;;7.62;80.48;101237.41;6130456;23;20074;-77
2023/04/15 06:35:54;;;;;;;11.50;8.65;;;;;;;7.61;80.97;101239.31;6130242;23;20014;-77
2023/04/15 06:38:21;;;;;;;13.50;10.10;;;;;;;7.62;81.54;101237.41;6105125;23;20019;-77
2023/04/15 06:40:47;;;;;;;13.57;10.02;;;;;;;7.75;81.41;101240.94;6130801;23;20479;-77
2023/04/15 06:43:14;;;;;;;13.90;9.77;;;;;;;7.82;81.49;101248.78;6128854;23;20022;-77
2023/04/15 06:45:40;;;;;;;15.27;10.60;;;;;;;7.95;81.23;101256.88;6128174;23;20021;-77
2023/04/15 06:48:07;;;;;;;14.85;9.98;;;;;;;8.01;81.11;101257.88;6127965;23;20015;-81
2023/04/15 06:50:34;;;;;;;12.27;9.70;;;;;;;7.96;81.21;101264.41;6101955;23;20015;-78
2023/04/15 06:53:01;;;;;;;11.43;8.90;;;;;;;7.95;81.13;101268.22;6103295;23;20027;-77
2023/04/15 06:55:28;;;;;;;10.20;8.35;;;;;;;8.03;81.48;101269.56;6130903;23;20070;-77
2023/04/15 06:57:55;;;;;;;11.23;8.30;;;;;;;8.20;81.47;101272.28;6130413;23;20021;-77
2023/04/15 07:00:21;;;;;;;9.63;8.05;;;;;;;8.39;81.46;101286.72;6130778;23;20449;-79
2023/04/15 07:02:48;;;;;;;19.60;8.30;;;;;;;8.54;81.09;101287.91;6130661;23;20093;-80
2023/04/15 07:05:15;;;;;;;10.30;8.38;;;;;;;8.69;80.96;101284.53;6129863;23;20021;-78
2023/04/15 07:07:41;;;;;;;9.38;8.45;;;;;;;8.94;80.39;101299.91;6130948;23;20078;-80
2023/04/15 07:10:08;;;;;;;11.55;8.07;;;;;;;9.13;80.07;101301.00;6130567;23;20019;-80
2023/04/15 07:12:35;;;;;;;8.73;7.80;;;;;;;9.27;79.49;101305.97;6080839;23;20023;-81
2023/04/15 07:15:02;;;;;;;9.48;8.48;;;;;;;9.35;78.70;101301.22;6080430;23;20023;-81
2023/04/15 07:17:29;;;;;;;9.07;8.18;;;;;;;9.44;78.41;101314.69;6104592;23;20322;-80
2023/04/15 07:19:55;;;;;;;11.13;8.15;;;;;;;9.45;78.13;101313.50;6130615;23;20024;-81
2023/04/15 07:22:22;;;;;;;9.88;8.88;;;;;;;9.42;78.00;101317.00;6130838;23;20416;-80
2023/04/15 07:24:48;;;;;;;10.75;8.23;;;;;;;9.47;78.30;101323.72;6104988;23;20074;-78
2023/04/15 07:27:16;;;;;;;11.23;8.25;;;;;;;9.50;77.66;101323.63;6129621;23;20297;-80
2023/04/15 07:29:43;;;;;;;10.68;8.23;;;;;;;9.55;77.71;101325.78;6130919;23;20060;-80
2023/04/15 07:32:09;;;;;;;8.38;7.50;;;;;;;9.67;77.43;101325.09;6103703;23;20424;-80
2023/04/15 07:34:36;;;;;;;11.05;8.38;;;;;;;9.76;76.36;101332.47;6130674;23;20015;-80
2023/04/15 07:37:03;;;;;;;10.70;8.65;;;;;;;9.94;76.29;101335.44;6130661;23;20014;-80
2023/04/15 07:39:30;;;;;;;9.55;8.20;;;;;;;10.15;75.00;101334.09;6104731;23;20104;-80
2023/04/15 07:41:57;;;;;;;10.00;8.15;;;;;;;10.35;74.15;101336.63;6130345;23;20465;-79
2023/04/15 07:44:25;;;;;;;9.88;7.90;;;;;;;10.57;72.78;101339.44;6131669;23;20014;-81
2023/04/15 07:46:52;;;;;;;11.00;7.53;;;;;;;10.70;72.79;101350.84;6130868;23;20054;-80
2023/04/15 07:49:20;;;;;;;7.65;6.95;;;;;;;10.89;71.94;101349.88;6104974;23;20018;-78
2023/04/15 07:51:47;;;;;;;7.65;6.97;;;;;;;11.07;70.08;101349.34;6104922;23;20480;-80
2023/04/15 07:54:15;;;;;;;10.95;6.07;;;;;;;11.12;67.55;101364.06;6130579;23;20093;-82
2023/04/15 07:56:41;;;;;;;7.38;6.05;;;;;;;11.18;68.29;101354.38;6104916;23;20015;-81
2023/04/15 07:59:08;;;;;;;6.63;6.03;;;;;;;11.31;67.58;101353.16;6104427;23;20074;-82
2023/04/15 08:01:35;;;;;;;6.85;6.25;;;;;;;11.44;68.01;101358.47;6130276;23;20026;-82
2023/04/15 08:04:02;;;;;;;6.38;5.85;;;;;;;11.61;66.18;101362.47;6104500;23;20424;-86
2023/04/15 08:06:29;;;;;;;10.57;6.07;;;;;;;11.68;65.42;101359.56;6104931;23;20483;-85
2023/04/15 08:08:56;;;;;;;7.03;5.97;;;;;;;11.75;64.77;101369.25;6104590;23;20021;-86
2023/04/15 08:11:23;;;;;;;6.57;5.95;;;;;;;11.79;63.87;101372.59;6104936;23;20018;-85
2023/04/15 08:13:50;;;;;;;5.95;5.38;;;;;;;12.04;63.94;101371.72;6080767;23;20018;-84
2023/04/15 08:16:17;;;;;;;6.28;5.10;;;;;;;12.16;63.01;101373.59;6107331;23;20457;-81
2023/04/15 08:18:46;;;;;;;5.50;5.10;;;;;;;12.20;62.59;101384.91;6107733;23;20021;-81
2023/04/15 08:21:13;;;;;;;6.03;5.13;;;;;;;12.08;61.54;101375.03;6129885;23;20030;-77
2023/04/15 08:23:39;;;;;;;4.88;4.53;;;;;;;12.02;61.17;101385.50;6130895;23;20070;-79
2023/04/15 08:26:07;;;;;;;5.03;4.63;;;;;;;12.02;60.84;101390.09;6104216;23;20393;-81
2023/04/15 08:28:36;;;;;;;5.43;5.03;;;;;;;11.96;61.22;101381.94;6130358;23;20524;-80
2023/04/15 08:31:03;;;;;;;5.22;4.82;;;;;;;12.11;60.97;101386.75;6129528;23;20097;-80
2023/04/15 08:33:29;;;;;;;6.10;4.68;;;;;;;12.34;61.73;101383.69;6130414;23;20485;-79
2023/04/15 08:35:56;;;;;;;4.55;4.20;;;;;;;12.49;60.24;101386.56;6079902;23;20037;-79
2023/04/15 08:38:23;;;;;;;4.97;4.50;;;;;;;12.55;60.10;101393.56;6130239;23;20041;-79
2023/04/15 08:40:49;;;;;;;4.45;4.15;;;;;;;12.55;58.91;101398.91;6130330;23;20018;-79
2023/04/15 08:43:27;;;;;;;4.40;4.00;;;;;;;12.62;59.89;101405.94;6129995;23;20037;-79
2023/04/15 08:45:54;;;;;;;4.13;3.70;;;;;;;12.68;58.62;101410.28;6129453;23;20556;-80
2023/04/15 08:48:23;;;;;;;4.50;4.10;;;;;;;12.61;58.60;101409.78;6130012;23;20027;-80
2023/04/15 08:50:50;;;;;;;7.03;4.32;;;;;;;12.66;59.16;101427.91;6130340;23;20055;-80
2023/04/15 08:53:17;;;;;;;4.95;4.45;;;;;;;12.53;58.57;101427.25;6130181;23;20046;-80
2023/04/15 08:55:45;;;;;;;4.38;4.00;;;;;;;12.44;59.53;101432.53;6130259;23;20022;-80
2023/04/15 08:58:13;;;;;;;4.45;4.15;;;;;;;12.48;59.83;101433.13;6129397;23;20018;-79
2023/04/15 09:00:40;;;;;;;5.35;4.38;;;;;;;12.51;59.03;101443.69;6104121;23;20464;-80
2023/04/15 09:03:08;;;;;;;10.50;5.10;;;;;;;12.69;59.16;101441.16;6103652;23;20069;-80
2023/04/15 09:05:36;;;;;;;7.45;5.47;;;;;;;12.84;58.99;101436.03;6130425;23;20071;-80
2023/04/15 09:08:04;;;;;;;5.22;4.68;;;;;;;13.02;58.67;101444.13;6104271;23;20022;-80
2023/04/15 09:10:32;;;;;;;4.93;4.53;;;;;;;13.15;58.65;101451.31;6103848;23;20093;-81
2023/04/15 09:13:00;;;;;;;6.47;4.63;;;;;;;13.31;58.79;101451.84;6130051;23;20093;-80
2023/04/15 09:15:28;;;;;;;4.30;3.90;;;;;;;13.50;57.86;101458.00;6129801;23;20018;-80
2023/04/15 09:17:55;;;;;;;4.60;4.30;;;;;;;13.52;57.40;101466.34;6130031;23;20022;-81
2023/04/15 09:20:22;;;;;;;4.45;4.15;;;;;;;13.56;57.29;101466.94;6130319;23;20106;-81
2023/04/15 09:22:50;;;;;;;4.40;4.03;;;;;;;13.51;57.51;101467.53;6133193;23;20022;-81
2023/04/15 09:25:20;;;;;;;4.15;3.85;;;;;;;13.64;57.22;101475.41;6103910;23;20058;-79
2023/04/15 09:27:50;;;;;;;3.90;3.65;;;;;;;13.61;57.15;101479.72;6129835;23;20053;-79
2023/04/15 09:30:17;;;;;;;3.45;3.25;;;;;;;13.60;57.23;101488.19;6103909;23;20094;-79
2023/04/15 09:32:55;;;;;;;3.60;3.40;;;;;;;13.58;57.51;101488.66;6130022;23;20074;-79
2023/04/15 09:35:23;;;;;;;3.33;3.13;;;;;;;13.62;56.70;101488.47;6130028;23;20025;-78
2023/04/15 09:37:50;;;;;;;3.45;3.15;;;;;;;13.72;56.96;101489.25;6130215;23;20324;-79
2023/04/15 09:40:32;;;;;;;3.70;3.40;;;;;;;13.71;56.70;101483.16;6129482;23;20453;-80
2023/04/15 09:43:00;;;;;;;3.72;3.42;;;;;;;13.61;56.67;101490.41;6128808;23;20015;-79
2023/04/15 09:45:28;;;;;;;3.63;3.42;;;;;;;13.70;56.46;101479.00;6129799;23;20017;-80
2023/04/15 09:47:57;;;;;;;4.43;4.00;;;;;;;13.79;57.14;101488.97;6129784;23;20066;-85
2023/04/15 09:50:28;;;;;;;4.30;4.00;;;;;;;13.69;57.32;101496.22;6104826;23;20548;-81
2023/04/15 09:52:55;;;;;;;4.43;4.10;;;;;;;13.69;56.44;101486.28;6131211;23;20898;-83
2023/04/15 09:55:22;;;;;;;4.70;3.80;;;;;;;13.72;56.24;101497.28;6132918;23;20089;-83
2023/04/15 09:57:48;;;;;;;4.95;4.00;;;;;;;13.83;55.95;101509.06;6128536;23;20014;-84
2023/04/15 10:00:15;;;;;;;3.60;3.30;;;;;;;13.84;55.62;101497.16;6130893;23;20359;-82
2023/04/15 10:02:42;;;;;;;3.22;2.97;;;;;;;13.93;55.13;101504.47;6131390;23;20073;-83
2023/04/15 10:05:10;;;;;;;3.13;2.92;;;;;;;13.92;55.17;101509.09;6105156;23;20015;-83
2023/04/15 10:07:40;;;;;;;5.03;3.95;;;;;;;14.00;55.63;101502.22;6131240;23;20050;-84
2023/04/15 10:10:06;;;;;;;5.78;4.32;;;;;;;14.25;56.55;101516.56;6105233;23;20030;-84
2023/04/15 10:12:36;;;;;;;5.22;4.75;;;;;;;14.45;55.41;101514.19;6104729;23;20018;-79
2023/04/15 10:15:04;;;;;;;4.40;4.10;;;;;;;14.35;55.66;101518.06;6130659;23;20011;-79
2023/04/15 10:17:34;;;;;;;6.05;3.25;;;;;;;14.17;53.72;101518.03;6130855;23;20441;-80
2023/04/15 10:20:03;;;;;;;3.20;3.00;;;;;;;14.31;54.66;101512.09;6080234;23;20105;-81
2023/04/15 10:22:31;;;;;;;2.78;2.53;;;;;;;14.29;53.61;101517.16;6104763;23;20122;-79
2023/04/15 10:25:01;;;;;;;3.40;2.97;;;;;;;14.51;53.95;101523.13;6130707;23;20420;-79
2023/04/15 10:27:28;;;;;;;3.70;3.03;;;;;;;14.65;54.34;101519.09;6130611;23;20027;-83
2023/04/15 10:29:55;;;;;;;2.95;2.78;;;;;;;14.64;53.57;101522.97;6132161;23;20023;-82
2023/04/15 10:32:24;;;;;;;3.05;2.78;;;;;;;14.74;55.17;101521.03;6131176;23;20070;-82
2023/04/15 10:34:52;;;;;;;3.03;2.88;;;;;;;14.86;54.33;101520.84;6131084;23;20018;-81
2023/04/15 10:37:40;;;;;;;3.20;3.00;;;;;;;15.02;53.63;101531.25;6105221;23;20086;-85
2023/04/15 10:40:30;;;;;;;3.40;3.10;;;;;;;15.13;54.11;101532.72;6104949;23;20086;-84
2023/04/15 10:42:59;;;;;;;3.58;3.33;;;;;;;15.11;53.80;101529.75;6130841;23;20014;-83
2023/04/15 10:45:27;;;;;;;3.10;2.90;;;;;;;14.66;53.51;101531.31;6131287;23;20101;-85
2023/04/15 10:47:56;;;;;;;2.90;2.70;;;;;;;14.40;53.94;101535.44;6104862;23;20523;-84
2023/04/15 10:50:25;;;;;;;2.63;2.42;;;;;;;14.30;53.87;101540.81;6104668;23;20476;-85
2023/04/15 10:52:52;;;;;;;3.25;2.47;;;;;;;14.30;53.94;101546.16;6130898;23;20086;-84
2023/04/15 10:55:21;;;;;;;3.20;3.00;;;;;;;14.45;54.50;101542.91;6130098;23;20025;-84
2023/04/15 10:57:58;;;;;;;2.97;2.78;;;;;;;14.64;54.09;101539.03;6130655;23;20074;-84
2023/04/15 11:00:27;;;;;;;3.00;2.90;;;;;;;14.77;53.20;101542.31;6131522;23;20014;-84
2023/04/15 11:02:56;;;;;;;2.63;2.45;;;;;;;14.69;53.91;101554.53;6133695;23;20436;-84
2023/04/15 11:05:53;;;;;;;2.60;2.40;;;;;;;14.64;53.56;101566.59;6105279;23;20444;-85
2023/04/15 11:08:53;;;;;;;2.95;2.58;;;;;;;14.91;53.49;101557.78;6080631;23;20460;-85
2023/04/15 11:11:20;;;;;;;2.80;2.50;;;;;;;14.96;52.25;101559.84;6079989;23;20027;-85
2023/04/15 11:13:49;;;;;;;2.40;2.20;;;;;;;14.87;51.12;101562.53;6131110;23;20037;-85
2023/04/15 11:16:15;;;;;;;2.60;2.40;;;;;;;14.92;51.87;101558.50;6130613;23;20029;-85
2023/04/15 11:18:52;;;;;;;2.45;2.25;;;;;;;15.31;52.70;101564.81;6130888;23;20408;-85
2023/04/15 11:21:24;;;;;;;2.67;2.47;;;;;;;15.32;51.04;101577.03;6130648;23;20022;-86
2023/04/15 11:23:51;;;;;;;3.58;2.10;;;;;;;15.19;50.51;101568.47;6130847;23;20025;-85
2023/04/15 11:26:18;;;;;;;2.75;2.42;;;;;;;15.15;50.96;101570.56;6130718;23;20034;-84
2023/04/15 11:28:45;;;;;;;2.60;2.40;;;;;;;15.16;51.23;101561.31;6104897;23;20022;-85
2023/04/15 11:31:16;;;;;;;2.30;2.10;;;;;;;15.20;50.51;101562.63;6130443;23;20019;-84